sensor_id;sensor_type;location;lat;lon;timestamp;temperature;humidity
74488;DHT22;63019;51.080;13.642;2023-02-17T00:00:47;9.30;99.90
74488;DHT22;63019;51.080;13.642;2023-02-17T00:01:49;9.30;99.90
74488;DHT22;63019;51.080;13.642;2023-02-17T00:02:55;9.30;99.90
74488;DHT22;63019;51.080;13.642;2023-02-17T00:03:58;9.30;99.90
74488;DHT22;63019;51.080;13.642;2023-02-17T00:05:00;9.30;99.90
74488;DHT22;63019;51.080;13.642;2023-02-17T00:06:09;9.30;99.90
74488;DHT22;63019;51.080;13.642;2023-02-17T00:07:11;9.30;99.90
74488;DHT22;63019;51.080;13.642;2023-02-17T00:08:13;9.30;99.90
74488;DHT22;63019;51.080;13.642;2023-02-17T00:09:14;9.30;99.90
74488;DHT22;63019;51.080;13.642;2023-02-17T00:10:17;9.30;99.90
74488;DHT22;63019;51.080;13.642;2023-02-17T00:11:19;9.30;99.90
74488;DHT22;63019;51.080;13.642;2023-02-17T00:12:21;9.20;99.90
74488;DHT22;63019;51.080;13.642;2023-02-17T00:13:23;9.20;99.90
74488;DHT22;63019;51.080;13.642;2023-02-17T00:14:24;9.20;99.90
74488;DHT22;63019;51.080;13.642;2023-02-17T00:15:26;9.20;99.90
74488;DHT22;63019;51.080;13.642;2023-02-17T00:16:28;9.20;99.90
74488;DHT22;63019;51.080;13.642;2023-02-17T00:17:30;9.20;99.90
74488;DHT22;63019;51.080;13.642;2023-02-17T00:18:32;9.20;99.90
74488;DHT22;63019;51.080;13.642;2023-02-17T00:19:34;9.20;99.90
74488;DHT22;63019;51.080;13.642;2023-02-17T00:20:35;9.20;99.90
74488;DHT22;63019;51.080;13.642;2023-02-17T00:21:37;9.20;99.90
74488;DHT22;63019;51.080;13.642;2023-02-17T00:22:39;9.20;99.90
74488;DHT22;63019;51.080;13.642;2023-02-17T00:23:42;9.20;99.90
74488;DHT22;63019;51.080;13.642;2023-02-17T00:24:44;9.20;99.90
74488;DHT22;63019;51.080;13.642;2023-02-17T00:25:45;9.20;99.90
74488;DHT22;63019;51.080;13.642;2023-02-17T00:26:48;9.20;99.90
74488;DHT22;63019;51.080;13.642;2023-02-17T00:27:49;9.20;99.90
74488;DHT22;63019;51.080;13.642;2023-02-17T00:28:51;9.20;99.90
74488;DHT22;63019;51.080;13.642;2023-02-17T00:29:53;9.20;99.90
74488;DHT22;63019;51.080;13.642;2023-02-17T00:30:55;9.30;99.90
74488;DHT22;63019;51.080;13.642;2023-02-17T00:31:57;9.30;99.90
74488;DHT22;63019;51.080;13.642;2023-02-17T00:32:59;9.30;99.90
74488;DHT22;63019;51.080;13.642;2023-02-17T00:34:01;9.30;99.90
74488;DHT22;63019;51.080;13.642;2023-02-17T00:35:02;9.30;99.90
74488;DHT22;63019;51.080;13.642;2023-02-17T00:36:06;9.30;99.90
74488;DHT22;63019;51.080;13.642;2023-02-17T00:37:09;9.30;99.90
74488;DHT22;63019;51.080;13.642;2023-02-17T00:38:11;9.30;99.90
74488;DHT22;63019;51.080;13.642;2023-02-17T00:39:16;9.30;99.90
74488;DHT22;63019;51.080;13.642;2023-02-17T00:40:18;9.40;99.90
74488;DHT22;63019;51.080;13.642;2023-02-17T00:41:20;9.40;99.90
74488;DHT22;63019;51.080;13.642;2023-02-17T00:42:22;9.40;99.90
74488;DHT22;63019;51.080;13.642;2023-02-17T00:43:24;9.40;99.90
74488;DHT22;63019;51.080;13.642;2023-02-17T00:44:26;9.40;99.90
74488;DHT22;63019;51.080;13.642;2023-02-17T00:45:28;9.40;99.90
74488;DHT22;63019;51.080;13.642;2023-02-17T00:46:30;9.40;99.90
74488;DHT22;63019;51.080;13.642;2023-02-17T00:47:32;9.30;99.90
74488;DHT22;63019;51.080;13.642;2023-02-17T00:48:34;9.30;99.90
74488;DHT22;63019;51.080;13.642;2023-02-17T00:49:36;9.30;99.90
74488;DHT22;63019;51.080;13.642;2023-02-17T00:50:37;9.30;99.90
74488;DHT22;63019;51.080;13.642;2023-02-17T00:51:39;9.30;99.90
74488;DHT22;63019;51.080;13.642;2023-02-17T00:52:41;9.30;99.90
74488;DHT22;63019;51.080;13.642;2023-02-17T00:53:43;9.30;99.90
74488;DHT22;63019;51.080;13.642;2023-02-17T00:54:45;9.30;99.90
74488;DHT22;63019;51.080;13.642;2023-02-17T00:55:46;9.30;99.90
74488;DHT22;63019;51.080;13.642;2023-02-17T00:56:48;9.30;99.90
74488;DHT22;63019;51.080;13.642;2023-02-17T00:57:50;9.30;99.90
74488;DHT22;63019;51.080;13.642;2023-02-17T00:58:52;9.30;99.90
74488;DHT22;63019;51.080;13.642;2023-02-17T00:59:54;9.30;99.90
74488;DHT22;63019;51.080;13.642;2023-02-17T01:00:56;9.30;99.90
74488;DHT22;63019;51.080;13.642;2023-02-17T01:01:58;9.30;99.90
74488;DHT22;63019;51.080;13.642;2023-02-17T01:03:00;9.30;99.90
74488;DHT22;63019;51.080;13.642;2023-02-17T01:04:02;9.30;99.90
74488;DHT22;63019;51.080;13.642;2023-02-17T01:05:04;9.30;99.90
74488;DHT22;63019;51.080;13.642;2023-02-17T01:06:09;9.30;99.90
74488;DHT22;63019;51.080;13.642;2023-02-17T01:07:11;9.30;99.90
74488;DHT22;63019;51.080;13.642;2023-02-17T01:08:14;9.30;99.90
74488;DHT22;63019;51.080;13.642;2023-02-17T01:09:16;9.30;99.90
74488;DHT22;63019;51.080;13.642;2023-02-17T01:10:18;9.30;99.90
74488;DHT22;63019;51.080;13.642;2023-02-17T01:11:22;9.40;99.90
74488;DHT22;63019;51.080;13.642;2023-02-17T01:12:25;9.40;99.90
74488;DHT22;63019;51.080;13.642;2023-02-17T01:13:26;9.40;99.90
74488;DHT22;63019;51.080;13.642;2023-02-17T01:14:28;9.40;99.90
74488;DHT22;63019;51.080;13.642;2023-02-17T01:15:30;9.30;99.90
74488;DHT22;63019;51.080;13.642;2023-02-17T01:16:36;9.30;99.90
74488;DHT22;63019;51.080;13.642;2023-02-17T01:17:38;9.40;99.90
74488;DHT22;63019;51.080;13.642;2023-02-17T01:18:39;9.40;99.90
74488;DHT22;63019;51.080;13.642;2023-02-17T01:19:41;9.30;99.90
74488;DHT22;63019;51.080;13.642;2023-02-17T01:20:43;9.30;99.90
74488;DHT22;63019;51.080;13.642;2023-02-17T01:21:45;9.40;99.90
74488;DHT22;63019;51.080;13.642;2023-02-17T01:22:47;9.30;99.90
74488;DHT22;63019;51.080;13.642;2023-02-17T01:23:53;9.30;99.90
74488;DHT22;63019;51.080;13.642;2023-02-17T01:24:55;9.30;99.90
74488;DHT22;63019;51.080;13.642;2023-02-17T01:25:57;9.30;99.90
74488;DHT22;63019;51.080;13.642;2023-02-17T01:26:59;9.30;99.90
74488;DHT22;63019;51.080;13.642;2023-02-17T01:28:00;9.30;99.90
74488;DHT22;63019;51.080;13.642;2023-02-17T01:29:04;9.30;99.90
74488;DHT22;63019;51.080;13.642;2023-02-17T01:30:06;9.30;99.90
74488;DHT22;63019;51.080;13.642;2023-02-17T01:31:09;9.30;99.90
74488;DHT22;63019;51.080;13.642;2023-02-17T01:32:11;9.30;99.90
74488;DHT22;63019;51.080;13.642;2023-02-17T01:33:13;9.30;99.90
74488;DHT22;63019;51.080;13.642;2023-02-17T01:34:15;9.40;99.90
74488;DHT22;63019;51.080;13.642;2023-02-17T01:35:17;9.40;99.90
74488;DHT22;63019;51.080;13.642;2023-02-17T01:36:19;9.30;99.90
74488;DHT22;63019;51.080;13.642;2023-02-17T01:37:21;9.40;99.90
74488;DHT22;63019;51.080;13.642;2023-02-17T01:38:23;9.40;99.90
74488;DHT22;63019;51.080;13.642;2023-02-17T01:39:25;9.40;99.90
74488;DHT22;63019;51.080;13.642;2023-02-17T01:40:26;9.40;99.90
74488;DHT22;63019;51.080;13.642;2023-02-17T01:41:28;9.40;99.90
74488;DHT22;63019;51.080;13.642;2023-02-17T01:42:30;9.40;99.90
74488;DHT22;63019;51.080;13.642;2023-02-17T01:43:32;9.40;99.90
74488;DHT22;63019;51.080;13.642;2023-02-17T01:44:34;9.40;99.90
74488;DHT22;63019;51.080;13.642;2023-02-17T01:45:40;9.40;99.90
74488;DHT22;63019;51.080;13.642;2023-02-17T01:46:49;9.40;99.90
74488;DHT22;63019;51.080;13.642;2023-02-17T01:47:58;9.40;99.90
74488;DHT22;63019;51.080;13.642;2023-02-17T01:49:03;9.40;99.90
74488;DHT22;63019;51.080;13.642;2023-02-17T01:50:05;9.50;99.90
74488;DHT22;63019;51.080;13.642;2023-02-17T01:51:22;9.50;99.90
74488;DHT22;63019;51.080;13.642;2023-02-17T01:52:26;9.50;99.90
74488;DHT22;63019;51.080;13.642;2023-02-17T01:53:43;9.50;99.90
74488;DHT22;63019;51.080;13.642;2023-02-17T01:54:56;9.50;99.90
74488;DHT22;63019;51.080;13.642;2023-02-17T01:55:58;9.50;99.90
74488;DHT22;63019;51.080;13.642;2023-02-17T01:57:01;9.50;99.90
74488;DHT22;63019;51.080;13.642;2023-02-17T01:58:03;9.50;99.90
74488;DHT22;63019;51.080;13.642;2023-02-17T01:59:12;9.50;99.90
74488;DHT22;63019;51.080;13.642;2023-02-17T02:00:18;9.50;99.90
74488;DHT22;63019;51.080;13.642;2023-02-17T02:01:21;9.50;99.90
74488;DHT22;63019;51.080;13.642;2023-02-17T02:02:23;9.40;99.90
74488;DHT22;63019;51.080;13.642;2023-02-17T02:03:26;9.40;99.90
74488;DHT22;63019;51.080;13.642;2023-02-17T02:04:32;9.40;99.90
74488;DHT22;63019;51.080;13.642;2023-02-17T02:05:37;9.40;99.90
74488;DHT22;63019;51.080;13.642;2023-02-17T02:06:40;9.40;99.90
74488;DHT22;63019;51.080;13.642;2023-02-17T02:07:44;9.40;99.90
74488;DHT22;63019;51.080;13.642;2023-02-17T02:09:03;9.40;99.90
74488;DHT22;63019;51.080;13.642;2023-02-17T02:10:07;9.40;99.90
74488;DHT22;63019;51.080;13.642;2023-02-17T02:11:09;9.40;99.90
74488;DHT22;63019;51.080;13.642;2023-02-17T02:12:19;9.40;99.90
74488;DHT22;63019;51.080;13.642;2023-02-17T02:13:21;9.40;99.90
74488;DHT22;63019;51.080;13.642;2023-02-17T02:14:23;9.40;99.90
74488;DHT22;63019;51.080;13.642;2023-02-17T02:15:33;9.40;99.90
74488;DHT22;63019;51.080;13.642;2023-02-17T02:17:13;9.40;99.90
74488;DHT22;63019;51.080;13.642;2023-02-17T02:32:25;9.50;99.90
74488;DHT22;63019;51.080;13.642;2023-02-17T02:35:11;9.40;99.90
74488;DHT22;63019;51.080;13.642;2023-02-17T02:39:33;9.50;99.90
74488;DHT22;63019;51.080;13.642;2023-02-17T02:40:38;9.50;99.90
74488;DHT22;63019;51.080;13.642;2023-02-17T02:41:49;9.50;99.90
74488;DHT22;63019;51.080;13.642;2023-02-17T02:42:55;9.50;99.90
74488;DHT22;63019;51.080;13.642;2023-02-17T02:43:57;9.50;99.90
74488;DHT22;63019;51.080;13.642;2023-02-17T02:44:59;9.50;99.90
74488;DHT22;63019;51.080;13.642;2023-02-17T02:46:01;9.50;99.90
74488;DHT22;63019;51.080;13.642;2023-02-17T02:47:29;9.50;99.90
74488;DHT22;63019;51.080;13.642;2023-02-17T02:48:26;9.50;99.90
74488;DHT22;63019;51.080;13.642;2023-02-17T02:49:30;9.40;99.90
74488;DHT22;63019;51.080;13.642;2023-02-17T02:52:07;9.40;99.90
74488;DHT22;63019;51.080;13.642;2023-02-17T02:54:40;9.30;99.90
74488;DHT22;63019;51.080;13.642;2023-02-17T02:55:51;9.30;99.90
74488;DHT22;63019;51.080;13.642;2023-02-17T02:57:10;9.30;99.90
74488;DHT22;63019;51.080;13.642;2023-02-17T02:59:45;9.20;99.90
74488;DHT22;63019;51.080;13.642;2023-02-17T03:01:01;9.20;99.90
74488;DHT22;63019;51.080;13.642;2023-02-17T03:03:54;9.20;99.90
74488;DHT22;63019;51.080;13.642;2023-02-17T03:06:41;9.20;99.90
74488;DHT22;63019;51.080;13.642;2023-02-17T03:08:08;9.30;99.90
74488;DHT22;63019;51.080;13.642;2023-02-17T03:09:16;9.30;99.90
74488;DHT22;63019;51.080;13.642;2023-02-17T03:10:20;9.30;99.90
74488;DHT22;63019;51.080;13.642;2023-02-17T03:11:25;9.30;99.90
74488;DHT22;63019;51.080;13.642;2023-02-17T03:12:36;9.30;99.90
74488;DHT22;63019;51.080;13.642;2023-02-17T03:13:38;9.30;99.90
74488;DHT22;63019;51.080;13.642;2023-02-17T03:14:42;9.30;99.90
74488;DHT22;63019;51.080;13.642;2023-02-17T03:15:44;9.30;99.90
74488;DHT22;63019;51.080;13.642;2023-02-17T03:16:46;9.30;99.90
74488;DHT22;63019;51.080;13.642;2023-02-17T03:17:48;9.30;99.90
74488;DHT22;63019;51.080;13.642;2023-02-17T03:18:50;9.30;99.90
74488;DHT22;63019;51.080;13.642;2023-02-17T03:19:52;9.30;99.90
74488;DHT22;63019;51.080;13.642;2023-02-17T03:20:56;9.30;99.90
74488;DHT22;63019;51.080;13.642;2023-02-17T03:22:06;9.30;99.90
74488;DHT22;63019;51.080;13.642;2023-02-17T03:23:10;9.30;99.90
74488;DHT22;63019;51.080;13.642;2023-02-17T03:24:12;9.30;99.90
74488;DHT22;63019;51.080;13.642;2023-02-17T03:25:14;9.30;99.90
74488;DHT22;63019;51.080;13.642;2023-02-17T03:26:16;9.30;99.90
74488;DHT22;63019;51.080;13.642;2023-02-17T03:27:18;9.30;99.90
74488;DHT22;63019;51.080;13.642;2023-02-17T03:28:20;9.30;99.90
74488;DHT22;63019;51.080;13.642;2023-02-17T03:29:22;9.30;99.90
74488;DHT22;63019;51.080;13.642;2023-02-17T03:30:23;9.30;99.90
74488;DHT22;63019;51.080;13.642;2023-02-17T03:31:26;9.30;99.90
74488;DHT22;63019;51.080;13.642;2023-02-17T03:32:31;9.30;99.90
74488;DHT22;63019;51.080;13.642;2023-02-17T03:33:33;9.30;99.90
74488;DHT22;63019;51.080;13.642;2023-02-17T03:34:35;9.40;99.90
74488;DHT22;63019;51.080;13.642;2023-02-17T03:35:37;9.40;99.90
74488;DHT22;63019;51.080;13.642;2023-02-17T03:36:39;9.40;99.90
74488;DHT22;63019;51.080;13.642;2023-02-17T03:37:40;9.40;99.90
74488;DHT22;63019;51.080;13.642;2023-02-17T03:38:42;9.40;99.90
74488;DHT22;63019;51.080;13.642;2023-02-17T03:39:44;9.40;99.90
74488;DHT22;63019;51.080;13.642;2023-02-17T03:40:46;9.40;99.90
74488;DHT22;63019;51.080;13.642;2023-02-17T03:41:48;9.40;99.90
74488;DHT22;63019;51.080;13.642;2023-02-17T03:42:52;9.40;99.90
74488;DHT22;63019;51.080;13.642;2023-02-17T03:43:53;9.40;99.90
74488;DHT22;63019;51.080;13.642;2023-02-17T03:44:55;9.40;99.90
74488;DHT22;63019;51.080;13.642;2023-02-17T03:45:57;9.40;99.90
74488;DHT22;63019;51.080;13.642;2023-02-17T03:46:59;9.40;99.90
74488;DHT22;63019;51.080;13.642;2023-02-17T03:48:01;9.40;99.90
74488;DHT22;63019;51.080;13.642;2023-02-17T03:49:02;9.40;99.90
74488;DHT22;63019;51.080;13.642;2023-02-17T03:50:05;9.40;99.90
74488;DHT22;63019;51.080;13.642;2023-02-17T03:51:19;9.40;99.90
74488;DHT22;63019;51.080;13.642;2023-02-17T03:52:21;9.40;99.90
74488;DHT22;63019;51.080;13.642;2023-02-17T03:53:23;9.50;99.90
74488;DHT22;63019;51.080;13.642;2023-02-17T03:54:25;9.50;99.90
74488;DHT22;63019;51.080;13.642;2023-02-17T03:55:27;9.50;99.90
74488;DHT22;63019;51.080;13.642;2023-02-17T03:56:29;9.50;99.90
74488;DHT22;63019;51.080;13.642;2023-02-17T03:57:31;9.40;99.90
74488;DHT22;63019;51.080;13.642;2023-02-17T03:58:35;9.40;99.90
74488;DHT22;63019;51.080;13.642;2023-02-17T03:59:37;9.40;99.90
74488;DHT22;63019;51.080;13.642;2023-02-17T04:00:39;9.40;99.90
74488;DHT22;63019;51.080;13.642;2023-02-17T04:01:41;9.40;99.90
74488;DHT22;63019;51.080;13.642;2023-02-17T04:02:43;9.40;99.90
74488;DHT22;63019;51.080;13.642;2023-02-17T04:03:45;9.40;99.90
74488;DHT22;63019;51.080;13.642;2023-02-17T04:04:47;9.40;99.90
74488;DHT22;63019;51.080;13.642;2023-02-17T04:05:48;9.40;99.90
74488;DHT22;63019;51.080;13.642;2023-02-17T04:06:50;9.40;99.90
74488;DHT22;63019;51.080;13.642;2023-02-17T04:07:52;9.30;99.90
74488;DHT22;63019;51.080;13.642;2023-02-17T04:08:54;9.30;99.90
74488;DHT22;63019;51.080;13.642;2023-02-17T04:09:55;9.20;99.90
74488;DHT22;63019;51.080;13.642;2023-02-17T04:10:59;9.20;99.90
74488;DHT22;63019;51.080;13.642;2023-02-17T04:12:01;9.20;99.90
74488;DHT22;63019;51.080;13.642;2023-02-17T04:13:03;9.10;99.90
74488;DHT22;63019;51.080;13.642;2023-02-17T04:14:05;9.10;99.90
74488;DHT22;63019;51.080;13.642;2023-02-17T04:15:07;9.00;99.90
74488;DHT22;63019;51.080;13.642;2023-02-17T04:16:09;9.00;99.90
74488;DHT22;63019;51.080;13.642;2023-02-17T04:17:11;8.90;99.90
74488;DHT22;63019;51.080;13.642;2023-02-17T04:18:14;8.80;99.90
74488;DHT22;63019;51.080;13.642;2023-02-17T04:19:15;8.80;99.90
74488;DHT22;63019;51.080;13.642;2023-02-17T04:20:17;8.70;99.90
74488;DHT22;63019;51.080;13.642;2023-02-17T04:21:19;8.70;99.90
74488;DHT22;63019;51.080;13.642;2023-02-17T04:22:21;8.60;99.90
74488;DHT22;63019;51.080;13.642;2023-02-17T04:23:22;8.60;99.90
74488;DHT22;63019;51.080;13.642;2023-02-17T04:24:24;8.50;99.90
74488;DHT22;63019;51.080;13.642;2023-02-17T04:25:26;8.50;99.90
74488;DHT22;63019;51.080;13.642;2023-02-17T04:26:29;8.40;99.90
74488;DHT22;63019;51.080;13.642;2023-02-17T04:27:30;8.40;99.90
74488;DHT22;63019;51.080;13.642;2023-02-17T04:28:33;8.30;99.90
74488;DHT22;63019;51.080;13.642;2023-02-17T04:29:35;8.30;99.90
74488;DHT22;63019;51.080;13.642;2023-02-17T04:30:37;8.30;99.90
74488;DHT22;63019;51.080;13.642;2023-02-17T04:31:39;8.30;99.90
74488;DHT22;63019;51.080;13.642;2023-02-17T04:32:40;8.30;99.90
74488;DHT22;63019;51.080;13.642;2023-02-17T04:33:42;8.30;99.90
74488;DHT22;63019;51.080;13.642;2023-02-17T04:34:44;8.30;99.90
74488;DHT22;63019;51.080;13.642;2023-02-17T04:35:46;8.30;99.90
74488;DHT22;63019;51.080;13.642;2023-02-17T04:36:48;8.30;99.90
74488;DHT22;63019;51.080;13.642;2023-02-17T04:37:50;8.30;99.90
74488;DHT22;63019;51.080;13.642;2023-02-17T04:38:52;8.30;99.90
74488;DHT22;63019;51.080;13.642;2023-02-17T04:39:54;8.30;99.90
74488;DHT22;63019;51.080;13.642;2023-02-17T04:40:57;8.30;99.90
74488;DHT22;63019;51.080;13.642;2023-02-17T04:41:59;8.30;99.90
74488;DHT22;63019;51.080;13.642;2023-02-17T04:43:01;8.30;99.90
74488;DHT22;63019;51.080;13.642;2023-02-17T04:44:03;8.30;99.90
74488;DHT22;63019;51.080;13.642;2023-02-17T04:45:06;8.30;99.90
74488;DHT22;63019;51.080;13.642;2023-02-17T04:46:08;8.30;99.90
74488;DHT22;63019;51.080;13.642;2023-02-17T04:47:12;8.30;99.90
74488;DHT22;63019;51.080;13.642;2023-02-17T04:48:14;8.30;99.90
74488;DHT22;63019;51.080;13.642;2023-02-17T04:49:16;8.30;99.90
74488;DHT22;63019;51.080;13.642;2023-02-17T04:50:18;8.30;99.90
74488;DHT22;63019;51.080;13.642;2023-02-17T04:51:21;8.30;99.90
74488;DHT22;63019;51.080;13.642;2023-02-17T04:52:23;8.30;99.90
74488;DHT22;63019;51.080;13.642;2023-02-17T04:53:25;8.30;99.90
74488;DHT22;63019;51.080;13.642;2023-02-17T04:54:27;8.30;99.90
74488;DHT22;63019;51.080;13.642;2023-02-17T04:55:29;8.40;99.90
74488;DHT22;63019;51.080;13.642;2023-02-17T04:56:31;8.40;99.90
74488;DHT22;63019;51.080;13.642;2023-02-17T04:57:33;8.40;99.90
74488;DHT22;63019;51.080;13.642;2023-02-17T04:58:35;8.40;99.90
74488;DHT22;63019;51.080;13.642;2023-02-17T04:59:37;8.40;99.90
74488;DHT22;63019;51.080;13.642;2023-02-17T05:00:39;8.40;99.90
74488;DHT22;63019;51.080;13.642;2023-02-17T05:01:41;8.40;99.90
74488;DHT22;63019;51.080;13.642;2023-02-17T05:02:43;8.40;99.90
74488;DHT22;63019;51.080;13.642;2023-02-17T05:03:44;8.40;99.90
74488;DHT22;63019;51.080;13.642;2023-02-17T05:04:46;8.40;99.90
74488;DHT22;63019;51.080;13.642;2023-02-17T05:05:49;8.40;99.90
74488;DHT22;63019;51.080;13.642;2023-02-17T05:06:50;8.40;99.90
74488;DHT22;63019;51.080;13.642;2023-02-17T05:07:52;8.40;99.90
74488;DHT22;63019;51.080;13.642;2023-02-17T05:08:54;8.40;99.90
74488;DHT22;63019;51.080;13.642;2023-02-17T05:09:56;8.40;99.90
74488;DHT22;63019;51.080;13.642;2023-02-17T05:10:58;8.40;99.90
74488;DHT22;63019;51.080;13.642;2023-02-17T05:11:59;8.40;99.90
74488;DHT22;63019;51.080;13.642;2023-02-17T05:13:03;8.50;99.90
74488;DHT22;63019;51.080;13.642;2023-02-17T05:14:05;8.50;99.90
74488;DHT22;63019;51.080;13.642;2023-02-17T05:15:07;8.50;99.90
74488;DHT22;63019;51.080;13.642;2023-02-17T05:16:09;8.40;99.90
74488;DHT22;63019;51.080;13.642;2023-02-17T05:17:11;8.40;99.90
74488;DHT22;63019;51.080;13.642;2023-02-17T05:18:13;8.40;99.90
74488;DHT22;63019;51.080;13.642;2023-02-17T05:19:14;8.50;99.90
74488;DHT22;63019;51.080;13.642;2023-02-17T05:20:16;8.50;99.90
74488;DHT22;63019;51.080;13.642;2023-02-17T05:21:18;8.40;99.90
74488;DHT22;63019;51.080;13.642;2023-02-17T05:22:20;8.40;99.90
74488;DHT22;63019;51.080;13.642;2023-02-17T05:23:22;8.50;99.90
74488;DHT22;63019;51.080;13.642;2023-02-17T05:24:23;8.50;99.90
74488;DHT22;63019;51.080;13.642;2023-02-17T05:25:25;8.50;99.90
74488;DHT22;63019;51.080;13.642;2023-02-17T05:26:27;8.50;99.90
74488;DHT22;63019;51.080;13.642;2023-02-17T05:27:30;8.50;99.90
74488;DHT22;63019;51.080;13.642;2023-02-17T05:28:32;8.50;99.90
74488;DHT22;63019;51.080;13.642;2023-02-17T05:29:34;8.50;99.90
74488;DHT22;63019;51.080;13.642;2023-02-17T05:30:35;8.50;99.90
74488;DHT22;63019;51.080;13.642;2023-02-17T05:31:37;8.50;99.90
74488;DHT22;63019;51.080;13.642;2023-02-17T05:32:39;8.50;99.90
74488;DHT22;63019;51.080;13.642;2023-02-17T05:33:41;8.50;99.90
74488;DHT22;63019;51.080;13.642;2023-02-17T05:34:43;8.50;99.90
74488;DHT22;63019;51.080;13.642;2023-02-17T05:35:45;8.50;99.90
74488;DHT22;63019;51.080;13.642;2023-02-17T05:36:47;8.50;99.90
74488;DHT22;63019;51.080;13.642;2023-02-17T05:37:48;8.50;99.90
74488;DHT22;63019;51.080;13.642;2023-02-17T05:38:50;8.50;99.90
74488;DHT22;63019;51.080;13.642;2023-02-17T05:39:52;8.50;99.90
74488;DHT22;63019;51.080;13.642;2023-02-17T05:40:54;8.50;99.90
74488;DHT22;63019;51.080;13.642;2023-02-17T05:41:56;8.50;99.90
74488;DHT22;63019;51.080;13.642;2023-02-17T05:42:57;8.50;99.90
74488;DHT22;63019;51.080;13.642;2023-02-17T05:43:59;8.50;99.90
74488;DHT22;63019;51.080;13.642;2023-02-17T05:45:01;8.60;99.90
74488;DHT22;63019;51.080;13.642;2023-02-17T05:46:04;8.60;99.90
74488;DHT22;63019;51.080;13.642;2023-02-17T05:47:06;8.60;99.90
74488;DHT22;63019;51.080;13.642;2023-02-17T05:48:08;8.60;99.90
74488;DHT22;63019;51.080;13.642;2023-02-17T05:49:10;8.60;99.90
74488;DHT22;63019;51.080;13.642;2023-02-17T05:50:12;8.60;99.90
74488;DHT22;63019;51.080;13.642;2023-02-17T05:51:14;8.60;99.90
74488;DHT22;63019;51.080;13.642;2023-02-17T05:52:17;8.60;99.90
74488;DHT22;63019;51.080;13.642;2023-02-17T05:53:19;8.60;99.90
74488;DHT22;63019;51.080;13.642;2023-02-17T05:54:21;8.60;99.90
74488;DHT22;63019;51.080;13.642;2023-02-17T05:55:23;8.60;99.90
74488;DHT22;63019;51.080;13.642;2023-02-17T05:56:24;8.60;99.90
74488;DHT22;63019;51.080;13.642;2023-02-17T05:57:26;8.70;99.90
74488;DHT22;63019;51.080;13.642;2023-02-17T05:58:28;8.70;99.90
74488;DHT22;63019;51.080;13.642;2023-02-17T05:59:30;8.70;99.90
74488;DHT22;63019;51.080;13.642;2023-02-17T06:00:32;8.70;99.90
74488;DHT22;63019;51.080;13.642;2023-02-17T06:01:34;8.70;99.90
74488;DHT22;63019;51.080;13.642;2023-02-17T06:02:37;8.60;99.90
74488;DHT22;63019;51.080;13.642;2023-02-17T06:03:39;8.70;99.90
74488;DHT22;63019;51.080;13.642;2023-02-17T06:04:41;8.70;99.90
74488;DHT22;63019;51.080;13.642;2023-02-17T06:05:44;8.70;99.90
74488;DHT22;63019;51.080;13.642;2023-02-17T06:06:46;8.70;99.90
74488;DHT22;63019;51.080;13.642;2023-02-17T06:07:48;8.70;99.90
74488;DHT22;63019;51.080;13.642;2023-02-17T06:08:50;8.70;99.90
74488;DHT22;63019;51.080;13.642;2023-02-17T06:09:51;8.70;99.90
74488;DHT22;63019;51.080;13.642;2023-02-17T06:10:54;8.70;99.90
74488;DHT22;63019;51.080;13.642;2023-02-17T06:11:55;8.70;99.90
74488;DHT22;63019;51.080;13.642;2023-02-17T06:12:57;8.70;99.90
74488;DHT22;63019;51.080;13.642;2023-02-17T06:13:59;8.80;99.90
74488;DHT22;63019;51.080;13.642;2023-02-17T06:15:01;8.80;99.90
74488;DHT22;63019;51.080;13.642;2023-02-17T06:16:04;8.80;99.90
74488;DHT22;63019;51.080;13.642;2023-02-17T06:17:06;8.80;99.90
74488;DHT22;63019;51.080;13.642;2023-02-17T06:18:08;8.80;99.90
74488;DHT22;63019;51.080;13.642;2023-02-17T06:19:10;8.80;99.90
74488;DHT22;63019;51.080;13.642;2023-02-17T06:20:12;8.80;99.90
74488;DHT22;63019;51.080;13.642;2023-02-17T06:21:14;8.80;99.90
74488;DHT22;63019;51.080;13.642;2023-02-17T06:22:16;8.80;99.90
74488;DHT22;63019;51.080;13.642;2023-02-17T06:23:19;8.80;99.90
74488;DHT22;63019;51.080;13.642;2023-02-17T06:24:21;8.80;99.90
74488;DHT22;63019;51.080;13.642;2023-02-17T06:25:22;8.80;99.90
74488;DHT22;63019;51.080;13.642;2023-02-17T06:26:24;8.90;99.90
74488;DHT22;63019;51.080;13.642;2023-02-17T06:27:26;8.90;99.90
74488;DHT22;63019;51.080;13.642;2023-02-17T06:28:28;8.90;99.90
74488;DHT22;63019;51.080;13.642;2023-02-17T06:29:30;8.90;99.90
74488;DHT22;63019;51.080;13.642;2023-02-17T06:30:31;8.90;99.90
74488;DHT22;63019;51.080;13.642;2023-02-17T06:31:33;8.90;99.90
74488;DHT22;63019;51.080;13.642;2023-02-17T06:32:35;8.90;99.90
74488;DHT22;63019;51.080;13.642;2023-02-17T06:33:37;8.90;99.90
74488;DHT22;63019;51.080;13.642;2023-02-17T06:34:39;8.90;99.90
74488;DHT22;63019;51.080;13.642;2023-02-17T06:35:41;8.90;99.90
74488;DHT22;63019;51.080;13.642;2023-02-17T06:36:45;8.90;99.90
74488;DHT22;63019;51.080;13.642;2023-02-17T06:37:47;8.90;99.90
74488;DHT22;63019;51.080;13.642;2023-02-17T06:38:48;8.90;99.90
74488;DHT22;63019;51.080;13.642;2023-02-17T06:39:50;8.90;99.90
74488;DHT22;63019;51.080;13.642;2023-02-17T06:40:52;8.90;99.90
74488;DHT22;63019;51.080;13.642;2023-02-17T06:41:54;8.90;99.90
74488;DHT22;63019;51.080;13.642;2023-02-17T06:42:56;9.00;99.90
74488;DHT22;63019;51.080;13.642;2023-02-17T06:43:58;9.00;99.90
74488;DHT22;63019;51.080;13.642;2023-02-17T06:45:00;9.00;99.90
74488;DHT22;63019;51.080;13.642;2023-02-17T06:46:05;9.00;99.90
74488;DHT22;63019;51.080;13.642;2023-02-17T06:47:08;9.00;99.90
74488;DHT22;63019;51.080;13.642;2023-02-17T06:48:10;9.00;99.90
74488;DHT22;63019;51.080;13.642;2023-02-17T06:49:12;9.00;99.90
74488;DHT22;63019;51.080;13.642;2023-02-17T06:50:14;9.10;99.90
74488;DHT22;63019;51.080;13.642;2023-02-17T06:51:16;9.10;99.90
74488;DHT22;63019;51.080;13.642;2023-02-17T06:52:18;9.10;99.90
74488;DHT22;63019;51.080;13.642;2023-02-17T06:53:20;9.10;99.90
74488;DHT22;63019;51.080;13.642;2023-02-17T06:54:22;9.10;99.90
74488;DHT22;63019;51.080;13.642;2023-02-17T06:55:23;9.10;99.90
74488;DHT22;63019;51.080;13.642;2023-02-17T06:56:25;9.10;99.90
74488;DHT22;63019;51.080;13.642;2023-02-17T06:57:27;9.10;99.90
74488;DHT22;63019;51.080;13.642;2023-02-17T06:58:29;9.10;99.90
74488;DHT22;63019;51.080;13.642;2023-02-17T06:59:33;9.10;99.90
74488;DHT22;63019;51.080;13.642;2023-02-17T07:00:35;9.10;99.90
74488;DHT22;63019;51.080;13.642;2023-02-17T07:01:37;9.10;99.90
74488;DHT22;63019;51.080;13.642;2023-02-17T07:02:39;9.10;99.90
74488;DHT22;63019;51.080;13.642;2023-02-17T07:03:41;9.10;99.90
74488;DHT22;63019;51.080;13.642;2023-02-17T07:04:43;9.10;99.90